Time;durP1;ratioP1;P1;durP2;ratioP2;P2;SDS_P1;SDS_P2;PMS_P1;PMS_P2;Temp;Humidity;BMP_temperature;BMP_pressure;BME280_temperature;BME280_humidity;BME280_pressure;Samples;Min_cycle;Max_cycle;Signal;HPM_P1;HPM_P2
2023/04/05 00:02:20;;;;;;;0.70;0.70;;;;;;;1.62;51.37;99513.56;4438615;32;33337;-77
2023/04/05 00:04:56;;;;;;;2.92;2.08;;;;;;;1.75;50.83;99512.22;4438484;32;33157;-77
2023/04/05 00:07:25;;;;;;;0.98;0.98;;;;;;;1.01;52.52;99512.69;4437416;32;35854;-77
2023/04/05 00:09:53;;;;;;;0.70;0.70;;;;;;;0.97;53.15;99505.72;4438393;32;34656;-77
2023/04/05 00:12:21;;;;;;;0.70;0.70;;;;;;;1.16;53.03;99511.41;4438554;32;33879;-77
2023/04/05 00:14:49;;;;;;;0.70;0.70;;;;;;;1.12;53.52;99506.16;4438213;32;33556;-77
2023/04/05 00:17:18;;;;;;;0.70;0.70;;;;;;;0.77;54.70;99501.66;4437239;32;36148;-77
2023/04/05 00:19:50;;;;;;;1.30;1.30;;;;;;;0.27;56.79;99509.47;4436793;32;34481;-79
2023/04/05 00:22:19;;;;;;;1.05;0.85;;;;;;;0.11;57.58;99505.53;4437309;32;33572;-77
2023/04/05 00:24:46;;;;;;;1.27;1.20;;;;;;;0.10;57.80;99504.66;4440261;32;33968;-78
2023/04/05 00:27:14;;;;;;;1.25;1.25;;;;;;;0.06;58.40;99500.25;4440195;32;35194;-77
2023/04/05 00:29:43;;;;;;;1.95;1.70;;;;;;;0.30;57.63;99502.78;4440144;32;35104;-77
2023/04/05 00:32:11;;;;;;;0.70;0.70;;;;;;;0.04;58.46;99499.34;4439388;32;33388;-76
2023/04/05 00:34:39;;;;;;;0.60;0.60;;;;;;;0.38;57.76;99498.75;4440270;32;33909;-75
2023/04/05 00:37:08;;;;;;;1.00;1.00;;;;;;;0.36;57.59;99496.97;4440210;32;35005;-78
2023/04/05 00:39:38;;;;;;;1.70;1.62;;;;;;;0.02;58.92;99493.28;4439972;32;35043;-79
2023/04/05 00:42:07;;;;;;;1.00;1.00;;;;;;;0.15;58.67;99500.56;4438991;32;33815;-78
2023/04/05 00:44:36;;;;;;;1.83;1.75;;;;;;;0.30;58.56;99504.44;4438967;32;34588;-76
2023/04/05 00:47:07;;;;;;;0.70;0.70;;;;;;;0.08;59.23;99497.75;4439023;32;34191;-75
2023/04/05 00:49:36;;;;;;;0.80;0.80;;;;;;;0.16;59.17;99499.75;4439073;32;34350;-78
2023/04/05 00:52:05;;;;;;;1.20;1.20;;;;;;;0.25;59.03;99495.72;4438897;32;34358;-76
2023/04/05 00:54:33;;;;;;;0.95;0.95;;;;;;;-0.02;60.10;99507.69;4426482;32;33772;-76
2023/04/05 00:57:02;;;;;;;0.80;0.80;;;;;;;-0.26;60.69;99497.47;4438889;32;35030;-75
2023/04/05 00:59:30;;;;;;;0.70;0.70;;;;;;;-0.08;60.10;99501.47;4426190;32;33266;-75
2023/04/05 01:02:03;;;;;;;0.80;0.80;;;;;;;-0.25;60.97;99496.66;4440053;32;33469;-76
2023/04/05 01:04:32;;;;;;;0.80;0.80;;;;;;;-0.27;60.90;99495.69;4438917;32;34896;-75
2023/04/05 01:07:11;;;;;;;0.70;0.70;;;;;;;-0.27;60.60;99489.72;4438861;32;35915;-76
2023/04/05 01:09:47;;;;;;;1.23;1.23;;;;;;;-0.14;60.14;99488.44;4438912;32;34677;-75
2023/04/05 01:12:17;;;;;;;0.80;0.80;;;;;;;0.26;58.91;99492.38;4438839;32;34328;-77
2023/04/05 01:14:53;;;;;;;0.80;0.80;;;;;;;0.30;58.89;99483.94;4426283;32;32394;-78
2023/04/05 01:17:27;;;;;;;0.85;0.85;;;;;;;0.02;59.77;99488.19;4438730;32;33829;-76
2023/04/05 01:19:59;;;;;;;0.70;0.70;;;;;;;0.15;59.72;99490.31;4438592;32;34445;-78
2023/04/05 01:22:46;;;;;;;1.45;1.40;;;;;;;0.31;58.85;99485.69;4438795;32;33562;-79
2023/04/05 01:25:37;;;;;;;2.75;2.55;;;;;;;0.67;58.05;99486.00;4439988;32;34003;-76
2023/04/05 01:28:11;;;;;;;0.70;0.70;;;;;;;0.55;58.40;99483.94;4439956;32;34916;-77
2023/04/05 01:30:41;;;;;;;0.70;0.70;;;;;;;0.24;59.30;99486.31;4439798;32;34395;-77
2023/04/05 01:33:15;;;;;;;1.60;1.50;;;;;;;0.62;57.81;99486.66;4439572;32;33763;-77
2023/04/05 01:36:05;;;;;;;0.70;0.70;;;;;;;0.71;57.67;99481.84;4438714;32;33836;-77
2023/04/05 01:38:38;;;;;;;1.65;1.55;;;;;;;0.70;57.85;99485.22;4439735;32;35140;-77
2023/04/05 01:41:06;;;;;;;0.70;0.70;;;;;;;0.90;57.21;99486.72;4438696;32;34364;-78
2023/04/05 01:43:34;;;;;;;1.00;1.00;;;;;;;0.28;58.53;99480.47;4439730;32;33438;-77
2023/04/05 01:46:02;;;;;;;0.80;0.80;;;;;;;0.63;57.92;99478.16;4438567;32;33974;-77
2023/04/05 01:48:31;;;;;;;0.90;0.90;;;;;;;0.40;58.97;99475.75;4438506;32;33930;-77
2023/04/05 01:50:59;;;;;;;0.60;0.60;;;;;;;0.68;57.67;99472.34;4439912;32;34370;-77
2023/04/05 01:53:27;;;;;;;0.70;0.70;;;;;;;0.35;58.20;99478.19;4426171;32;33535;-79
2023/04/05 01:56:00;;;;;;;2.28;2.17;;;;;;;0.62;57.05;99476.41;4439599;32;33682;-79
2023/04/05 01:58:28;;;;;;;0.80;0.80;;;;;;;0.74;57.16;99476.81;4438479;32;35091;-77
2023/04/05 02:00:57;;;;;;;0.70;0.70;;;;;;;0.93;56.57;99473.09;4439795;32;34632;-77
2023/04/05 02:03:25;;;;;;;0.85;0.85;;;;;;;0.54;57.56;99478.75;4439598;32;33371;-78
2023/04/05 02:05:53;;;;;;;0.85;0.85;;;;;;;0.51;57.94;99476.97;4439633;32;34830;-76
2023/04/05 02:08:21;;;;;;;0.80;0.80;;;;;;;0.41;58.15;99472.38;4439489;32;35028;-77
2023/04/05 02:10:52;;;;;;;0.77;0.77;;;;;;;0.53;57.96;99466.75;4439735;32;34485;-77
2023/04/05 02:13:21;;;;;;;0.80;0.80;;;;;;;0.56;57.50;99475.44;4438768;32;32859;-77
2023/04/05 02:15:49;;;;;;;2.28;1.60;;;;;;;0.59;57.14;99468.66;4438424;32;33931;-77
2023/04/05 02:18:21;;;;;;;0.70;0.70;;;;;;;0.25;58.40;99472.69;4438348;32;34986;-78
2023/04/05 02:20:50;;;;;;;1.80;1.70;;;;;;;0.38;58.08;99470.56;4438133;32;35137;-76
2023/04/05 02:23:19;;;;;;;0.77;0.77;;;;;;;0.25;57.94;99476.13;4438334;32;33673;-77
2023/04/05 02:25:47;;;;;;;0.80;0.80;;;;;;;0.09;58.79;99469.63;4438378;32;34695;-76
2023/04/05 02:28:15;;;;;;;0.70;0.70;;;;;;;0.49;57.27;99473.47;4439387;32;35964;-77
2023/04/05 02:30:43;;;;;;;0.80;0.80;;;;;;;0.34;57.54;99473.88;4439400;32;33621;-76
2023/04/05 02:33:11;;;;;;;1.02;1.02;;;;;;;0.48;57.25;99469.19;4439501;32;33471;-76
2023/04/05 02:35:40;;;;;;;0.70;0.70;;;;;;;0.52;57.02;99471.00;4438487;32;34436;-77
2023/04/05 02:38:08;;;;;;;0.80;0.80;;;;;;;0.64;57.56;99470.53;4438299;32;34896;-77
2023/04/05 02:40:36;;;;;;;0.70;0.70;;;;;;;0.68;57.11;99467.22;4439191;32;35111;-78
2023/04/05 02:43:06;;;;;;;0.80;0.80;;;;;;;0.68;57.51;99467.22;4439552;32;33558;-78
2023/04/05 02:45:35;;;;;;;0.80;0.80;;;;;;;1.03;56.34;99466.56;4438317;32;33933;-77
2023/04/05 02:48:03;;;;;;;1.10;1.10;;;;;;;0.82;57.03;99471.94;4425454;32;33588;-77
2023/04/05 02:50:31;;;;;;;1.00;1.00;;;;;;;0.74;57.12;99469.09;4438199;32;34537;-76
2023/04/05 02:52:59;;;;;;;0.90;0.90;;;;;;;0.76;56.93;99464.94;4439257;32;33558;-77
2023/04/05 02:55:29;;;;;;;0.70;0.70;;;;;;;0.53;57.27;99466.75;4439598;32;34104;-77
2023/04/05 02:58:01;;;;;;;2.00;1.90;;;;;;;0.41;57.59;99466.38;4437960;32;34912;-77
2023/04/05 03:00:30;;;;;;;0.80;0.80;;;;;;;0.50;57.41;99457.28;4439466;32;34801;-76
2023/04/05 03:02:59;;;;;;;1.33;1.33;;;;;;;0.48;56.78;99452.94;4439403;32;34244;-77
2023/04/05 03:05:27;;;;;;;0.80;0.80;;;;;;;0.41;57.12;99462.13;4439243;32;33928;-77
2023/04/05 03:07:58;;;;;;;4.82;4.43;;;;;;;0.04;58.60;99460.94;4439094;32;35797;-76
2023/04/05 03:10:31;;;;;;;1.25;1.25;;;;;;;-0.10;58.66;99465.59;4439095;32;35296;-77
2023/04/05 03:13:00;;;;;;;0.80;0.80;;;;;;;-0.25;59.36;99465.06;4439242;32;33559;-77
2023/04/05 03:15:31;;;;;;;0.80;0.80;;;;;;;0.00;58.57;99461.66;4439451;32;34628;-77
2023/04/05 03:18:00;;;;;;;0.80;0.80;;;;;;;-0.43;59.64;99465.28;4439122;32;35855;-77
2023/04/05 03:20:29;;;;;;;1.17;1.17;;;;;;;-0.09;59.11;99463.88;4437921;32;34438;-78
2023/04/05 03:22:57;;;;;;;0.80;0.80;;;;;;;-0.26;59.06;99464.19;4438156;32;33454;-77
2023/04/05 03:25:27;;;;;;;2.78;2.67;;;;;;;0.05;58.46;99462.66;4439149;32;34764;-77
2023/04/05 03:27:56;;;;;;;0.80;0.80;;;;;;;0.03;58.56;99463.44;4439244;32;33958;-78
2023/04/05 03:30:25;;;;;;;1.02;1.00;;;;;;;0.22;57.93;99467.47;4437774;32;32919;-77
2023/04/05 03:32:56;;;;;;;1.30;1.30;;;;;;;0.12;57.85;99464.59;4438085;32;33494;-77
2023/04/05 03:35:25;;;;;;;1.17;1.17;;;;;;;0.59;56.49;99476.34;4439098;32;34849;-76
2023/04/05 03:37:53;;;;;;;0.80;0.80;;;;;;;-0.35;58.99;99471.56;4439133;32;35813;-76
2023/04/05 03:40:22;;;;;;;1.35;1.30;;;;;;;-0.28;59.05;99476.06;4437789;32;34865;-77
2023/04/05 03:42:51;;;;;;;0.90;0.90;;;;;;;-0.26;59.04;99476.13;4437956;32;34154;-76
2023/04/05 03:45:19;;;;;;;0.80;0.80;;;;;;;-0.50;59.94;99478.69;4439095;32;33704;-77
2023/04/05 03:47:52;;;;;;;1.80;1.70;;;;;;;-0.58;59.90;99479.28;4437839;32;35908;-76
2023/04/05 03:50:20;;;;;;;0.80;0.80;;;;;;;-0.07;58.57;99480.16;4437528;32;34447;-77
2023/04/05 03:52:49;;;;;;;1.95;1.85;;;;;;;-0.27;59.23;99480.34;4438587;32;33567;-77
2023/04/05 03:55:17;;;;;;;3.35;3.15;;;;;;;-0.23;59.07;99484.78;4437827;32;34633;-77
2023/04/05 03:57:46;;;;;;;7.53;2.95;;;;;;;-0.13;58.68;99487.66;4439007;32;35943;-78
2023/04/05 04:00:16;;;;;;;1.58;1.55;;;;;;;-0.46;59.78;99493.31;4439621;32;34430;-79
2023/04/05 04:02:52;;;;;;;0.80;0.80;;;;;;;-0.23;59.14;99484.78;4440897;32;34305;-76
2023/04/05 04:05:20;;;;;;;0.90;0.90;;;;;;;-0.52;59.81;99483.75;4440663;32;33985;-76
2023/04/05 04:07:50;;;;;;;0.88;0.88;;;;;;;-0.57;59.79;99486.12;4440335;32;35038;-77
2023/04/05 04:10:19;;;;;;;1.10;1.10;;;;;;;-0.65;60.57;99486.69;4440661;32;34438;-77
2023/04/05 04:12:48;;;;;;;1.17;1.17;;;;;;;-1.27;61.78;99493.69;4440663;32;33439;-77
2023/04/05 04:15:17;;;;;;;3.50;3.28;;;;;;;-1.20;62.03;99496.56;4440582;32;33925;-77
2023/04/05 04:17:45;;;;;;;1.20;1.20;;;;;;;-0.84;61.02;99491.09;4440602;32;35049;-77
2023/04/05 04:20:14;;;;;;;0.80;0.80;;;;;;;-0.74;60.59;99491.44;4440018;32;35321;-77
2023/04/05 04:22:42;;;;;;;0.80;0.80;;;;;;;-0.67;60.25;99489.19;4439518;32;33405;-76
2023/04/05 04:25:16;;;;;;;0.80;0.80;;;;;;;-0.51;59.37;99489.72;4440479;32;34726;-76
2023/04/05 04:27:49;;;;;;;2.08;1.98;;;;;;;-1.00;61.00;99494.78;4440578;32;35917;-77
2023/04/05 04:30:21;;;;;;;0.95;0.95;;;;;;;-0.24;58.51;99490.69;4439526;32;34447;-80
2023/04/05 04:32:58;;;;;;;1.02;1.02;;;;;;;-0.71;60.28;99491.56;4439202;32;34314;-77
2023/04/05 04:35:29;;;;;;;0.80;0.80;;;;;;;-0.88;61.00;99493.47;4439476;32;34960;-77
2023/04/05 04:37:59;;;;;;;1.20;1.20;;;;;;;-0.22;59.18;99493.31;4439293;32;34966;-76
2023/04/05 04:40:39;;;;;;;0.80;0.80;;;;;;;0.02;58.11;99488.19;4439276;32;35202;-77
2023/04/05 04:43:25;;;;;;;1.08;1.08;;;;;;;-0.64;59.61;99493.53;4426780;32;32672;-77
2023/04/05 04:45:54;;;;;;;1.10;1.08;;;;;;;-0.49;59.41;99490.66;4427848;32;32819;-77
2023/04/05 04:48:24;;;;;;;7.00;3.90;;;;;;;-0.17;58.63;99488.38;4440184;32;34564;-77
2023/04/05 04:50:53;;;;;;;1.25;1.25;;;;;;;0.10;57.53;99496.09;4438833;32;33692;-76
2023/04/05 04:53:21;;;;;;;3.15;2.95;;;;;;;0.08;57.78;99501.16;4440347;32;33623;-76
2023/04/05 04:55:51;;;;;;;0.70;0.70;;;;;;;-0.18;58.28;99494.28;4439973;32;33889;-87
2023/04/05 04:58:19;;;;;;;0.80;0.80;;;;;;;-0.08;57.82;99497.22;4438893;32;34844;-85
2023/04/05 05:00:47;;;;;;;1.17;1.10;;;;;;;0.04;57.17;99509.56;4440379;32;34039;-86
2023/04/05 05:03:16;;;;;;;6.12;3.35;;;;;;;0.29;57.51;99506.13;4440066;32;33546;-85
2023/04/05 05:05:45;;;;;;;0.80;0.80;;;;;;;0.91;56.17;99506.37;4440001;32;33751;-84
2023/04/05 05:08:16;;;;;;;0.70;0.70;;;;;;;1.58;53.58;99506.63;4439428;32;35048;-73
2023/04/05 05:10:54;;;;;;;1.08;1.08;;;;;;;2.47;51.45;99503.81;4440263;32;34603;-77
2023/04/05 05:13:22;;;;;;;2.92;2.62;;;;;;;3.38;48.99;99503.28;4438920;32;33045;-77
2023/04/05 05:15:50;;;;;;;1.00;1.00;;;;;;;4.60;46.24;99497.75;4439986;32;33881;-77
2023/04/05 05:18:18;;;;;;;1.80;1.70;;;;;;;5.75;43.10;99505.34;4439805;32;35112;-78
2023/04/05 05:20:49;;;;;;;1.12;1.12;;;;;;;6.41;40.89;99498.28;4438415;32;34549;-78
2023/04/05 05:23:17;;;;;;;0.55;0.55;;;;;;;6.95;40.05;99504.72;4439932;32;34156;-81
2023/04/05 05:25:45;;;;;;;0.98;0.98;;;;;;;5.95;42.36;99508.13;4439938;32;33799;-77
2023/04/05 05:28:14;;;;;;;1.20;1.20;;;;;;;6.03;41.78;99501.34;4439890;32;34994;-76
2023/04/05 05:30:42;;;;;;;0.70;0.70;;;;;;;5.57;43.09;99506.84;4438911;32;34542;-76
2023/04/05 05:33:10;;;;;;;0.80;0.80;;;;;;;4.25;45.29;99505.75;4439801;32;33422;-76
2023/04/05 05:35:40;;;;;;;1.33;1.30;;;;;;;4.22;46.46;99505.75;4439511;32;33959;-75
2023/04/05 05:38:10;;;;;;;0.95;0.85;;;;;;;4.01;46.31;99513.06;4439771;32;34282;-75
2023/04/05 05:40:41;;;;;;;0.80;0.80;;;;;;;3.13;47.96;99517.31;4439650;32;34594;-76
2023/04/05 05:43:09;;;;;;;1.37;1.10;;;;;;;4.79;45.55;99505.78;4438573;32;33786;-77
2023/04/05 05:45:37;;;;;;;0.82;0.82;;;;;;;4.86;46.27;99507.63;4438572;32;34788;-76
2023/04/05 05:48:06;;;;;;;3.22;1.62;;;;;;;5.49;44.75;99506.75;4438617;32;35363;-80
2023/04/05 05:50:34;;;;;;;0.70;0.70;;;;;;;6.84;41.06;99508.94;4439748;32;34570;-76
2023/04/05 05:53:02;;;;;;;0.95;0.95;;;;;;;6.58;41.40;99501.88;4439700;32;34323;-76
2023/04/05 05:55:30;;;;;;;0.70;0.70;;;;;;;5.91;42.60;99508.94;4439725;32;33973;-75
2023/04/05 05:57:58;;;;;;;3.83;2.90;;;;;;;5.64;43.37;99497.47;4439518;32;34951;-80
2023/04/05 06:00:26;;;;;;;0.73;0.73;;;;;;;5.62;44.13;99504.34;4439504;32;35096;-78
2023/04/05 06:02:55;;;;;;;0.62;0.62;;;;;;;5.49;43.88;99505.91;4439718;32;33570;-77
2023/04/05 06:05:23;;;;;;;2.42;2.05;;;;;;;5.42;43.30;99502.38;4438484;32;33998;-77
2023/04/05 11:19:47;;;;;;;0.77;0.77;;;;;;;19.69;21.97;99423.94;4507133;31;207489;-83
2023/04/05 11:22:27;;;;;;;;;;;;;;;19.69;21.97;99423.94;4498266;31;33924;-83
2023/04/05 11:24:56;;;;;;;0.82;0.80;;;;;;;20.95;20.12;99416.91;4497931;32;34322;-83
2023/04/05 11:27:33;;;;;;;0.85;0.70;;;;;;;20.45;20.92;99418.53;4497798;31;34393;-86
2023/04/05 11:30:04;;;;;;;1.58;1.05;;;;;;;21.53;21.64;99410.28;4484007;32;34174;-82
2023/04/05 11:32:43;;;;;;;2.30;2.15;;;;;;;20.77;19.36;99418.69;4483768;32;33366;-84
2023/04/05 11:35:21;;;;;;;2.80;2.60;;;;;;;21.08;20.15;99410.03;4497821;32;34579;-83
2023/04/05 11:37:59;;;;;;;1.30;1.10;;;;;;;18.25;22.69;99413.50;4484370;32;35028;-83
2023/04/05 11:40:31;;;;;;;0.70;0.70;;;;;;;20.74;20.94;99406.50;4497662;31;34314;-83
2023/04/05 11:43:07;;;;;;;1.27;1.15;;;;;;;19.37;22.26;99404.31;4483645;31;34215;-83
2023/04/05 11:45:36;;;;;;;0.90;0.88;;;;;;;19.82;21.90;99403.97;4483991;32;33981;-86
2023/04/05 11:48:07;;;;;;;1.20;1.17;;;;;;;19.57;22.81;99400.72;4483590;32;35954;-85
2023/04/05 11:50:37;;;;;;;1.10;1.00;;;;;;;19.28;20.78;99395.00;4497717;32;33320;-84
2023/04/05 11:53:10;;;;;;;1.42;1.33;;;;;;;19.21;21.65;99390.94;4484061;32;33725;-85
2023/04/05 11:55:40;;;;;;;1.02;1.02;;;;;;;19.07;21.00;99389.78;4497732;32;33936;-84
2023/04/05 11:58:13;;;;;;;0.75;0.75;;;;;;;17.28;22.83;99397.94;4471035;32;35942;-84
2023/04/05 12:00:41;;;;;;;1.48;1.23;;;;;;;16.33;24.45;99389.84;4483573;32;33465;-84
2023/04/05 12:03:11;;;;;;;0.77;0.77;;;;;;;15.03;25.60;99378.97;4483463;32;33421;-85
2023/04/05 12:05:49;;;;;;;1.70;1.00;;;;;;;15.95;24.88;99386.69;4483638;32;33522;-84
2023/04/05 12:08:19;;;;;;;1.23;1.12;;;;;;;15.34;26.31;99384.19;4483395;32;35045;-83
2023/04/05 12:11:00;;;;;;;0.75;0.75;;;;;;;13.27;30.49;99375.34;4497748;31;35084;-84
2023/04/05 12:13:32;;;;;;;1.30;1.20;;;;;;;12.80;29.57;99377.19;4483721;32;33139;-83
2023/04/05 12:16:07;;;;;;;0.77;0.77;;;;;;;13.65;27.57;99368.47;4497475;32;34019;-84
2023/04/05 12:18:36;;;;;;;0.93;0.93;;;;;;;13.95;28.83;99377.34;4494367;32;35870;-85
2023/04/05 12:21:09;;;;;;;0.50;0.50;;;;;;;14.74;27.72;99378.88;4473182;32;34405;-86
2023/04/05 12:23:42;;;;;;;0.62;0.62;;;;;;;14.35;28.04;99372.91;4486951;32;33367;-84
2023/04/05 12:26:10;;;;;;;3.60;1.45;;;;;;;14.42;27.68;99366.59;4486866;32;33795;-85
2023/04/05 12:28:54;;;;;;;0.77;0.77;;;;;;;14.35;26.54;99359.78;4486705;31;35772;-83
2023/04/05 12:31:41;;;;;;;1.67;1.50;;;;;;;14.25;28.84;99358.31;4473228;32;34008;-84
2023/04/05 12:34:10;;;;;;;0.50;0.50;;;;;;;13.60;26.89;99349.38;4486872;32;33403;-82
2023/04/05 12:36:45;;;;;;;0.80;0.80;;;;;;;12.53;27.51;99368.97;4486816;32;33912;-85
2023/04/05 12:39:15;;;;;;;2.30;1.50;;;;;;;12.78;31.31;99358.94;4472794;32;34680;-84
2023/04/05 12:41:55;;;;;;;2.35;0.95;;;;;;;12.56;30.01;99355.84;4486896;32;34395;-86
2023/04/05 12:44:30;;;;;;;1.20;1.15;;;;;;;12.51;30.01;99360.28;4472543;32;32085;-83
2023/04/05 12:47:01;;;;;;;1.80;1.70;;;;;;;12.61;31.24;99364.47;4472798;32;34002;-84
2023/04/05 12:49:35;;;;;;;1.40;1.25;;;;;;;13.19;28.88;99356.38;4486741;32;35744;-84
2023/04/05 12:52:04;;;;;;;1.00;0.93;;;;;;;13.46;28.49;99353.19;4472790;32;35036;-85
2023/04/05 12:54:33;;;;;;;1.85;1.50;;;;;;;12.13;31.45;99354.00;4472601;32;33512;-84
2023/04/05 12:57:07;;;;;;;3.80;1.40;;;;;;;11.44;31.09;99357.66;4486743;32;33609;-88
2023/04/05 12:59:36;;;;;;;0.62;0.62;;;;;;;12.62;29.03;99347.91;4486663;32;35481;-87
2023/04/05 13:02:04;;;;;;;0.73;0.73;;;;;;;13.37;28.62;99342.06;4486622;32;34825;-84
2023/04/05 13:04:32;;;;;;;0.47;0.47;;;;;;;13.54;27.56;99341.69;4486617;32;33349;-84
2023/04/05 13:07:00;;;;;;;1.42;1.33;;;;;;;13.33;26.84;99345.66;4486625;32;33893;-84
2023/04/05 13:09:31;;;;;;;0.95;0.82;;;;;;;13.31;28.53;99340.44;4472360;32;34598;-85
2023/04/05 13:11:59;;;;;;;0.70;0.70;;;;;;;13.15;27.05;99334.66;4472612;32;33554;-83
2023/04/05 13:14:27;;;;;;;3.25;2.80;;;;;;;12.99;29.38;99333.22;4486597;32;34093;-83
2023/04/05 13:16:55;;;;;;;0.77;0.77;;;;;;;12.41;31.53;99336.09;4486688;32;34672;-86
2023/04/05 13:19:23;;;;;;;0.52;0.52;;;;;;;12.84;30.41;99339.66;4486427;32;35141;-83
2023/04/05 13:21:51;;;;;;;0.98;0.82;;;;;;;11.90;30.22;99330.87;4486537;32;34802;-84
2023/04/05 13:24:21;;;;;;;0.40;0.40;;;;;;;12.69;31.63;99328.59;4486437;32;34301;-85
2023/04/05 13:26:49;;;;;;;0.95;0.95;;;;;;;12.87;28.76;99331.75;4472113;32;33774;-84
2023/04/05 13:29:19;;;;;;;1.00;1.00;;;;;;;12.55;28.80;99335.84;4486231;32;36801;-83
2023/04/05 13:31:47;;;;;;;0.50;0.50;;;;;;;12.70;28.61;99330.31;4485272;32;34470;-87
2023/04/05 13:34:15;;;;;;;0.50;0.50;;;;;;;12.68;27.37;99334.72;4486274;32;33428;-86
2023/04/05 13:36:47;;;;;;;1.02;1.02;;;;;;;12.86;27.01;99328.25;4460109;32;33114;-87
2023/04/05 13:39:15;;;;;;;0.50;0.50;;;;;;;12.93;27.30;99330.75;4486556;32;35740;-85
2023/04/05 13:41:43;;;;;;;0.98;0.98;;;;;;;13.39;25.98;99327.19;4486363;32;34323;-85
2023/04/05 13:44:11;;;;;;;0.65;0.65;;;;;;;12.78;27.99;99329.31;4472241;32;33413;-85
2023/04/05 13:46:39;;;;;;;1.50;1.40;;;;;;;12.10;29.19;99323.56;4486196;32;33857;-85
2023/04/05 13:49:07;;;;;;;1.98;1.12;;;;;;;12.61;27.49;99313.97;4472096;32;34798;-84
2023/04/05 13:51:40;;;;;;;16.17;4.68;;;;;;;12.17;29.94;99319.12;4472199;32;35163;-86
2023/04/05 13:54:13;;;;;;;0.45;0.45;;;;;;;12.06;29.68;99321.06;4472813;32;34198;-85
2023/04/05 13:56:42;;;;;;;0.73;0.65;;;;;;;12.74;29.30;99317.19;4486115;32;34641;-84
2023/04/05 13:59:15;;;;;;;0.98;0.98;;;;;;;12.68;28.33;99313.81;4486227;31;35043;-83
2023/04/05 14:01:45;;;;;;;0.50;0.50;;;;;;;12.10;28.50;99314.91;4472800;32;34117;-83
2023/04/05 14:04:15;;;;;;;1.30;1.25;;;;;;;12.21;29.59;99315.59;4472459;32;33777;-84
2023/04/05 14:06:43;;;;;;;0.62;0.62;;;;;;;12.57;29.70;99307.09;4486045;32;33807;-83
2023/04/05 14:09:11;;;;;;;0.70;0.70;;;;;;;12.63;27.78;99313.03;4471890;32;35083;-84
2023/04/05 14:11:39;;;;;;;0.90;0.90;;;;;;;12.83;27.96;99311.78;4486148;32;34454;-83
2023/04/05 14:14:07;;;;;;;0.60;0.60;;;;;;;12.45;26.94;99313.41;4486037;32;33451;-83
2023/04/05 14:16:36;;;;;;;0.40;0.40;;;;;;;12.30;28.31;99314.53;4472074;32;34799;-87
2023/04/05 14:19:05;;;;;;;0.77;0.77;;;;;;;12.30;28.25;99309.31;4468949;32;34903;-84
2023/04/05 14:21:36;;;;;;;0.57;0.57;;;;;;;12.35;25.89;99317.06;4469171;32;34975;-83
2023/04/05 14:24:04;;;;;;;0.95;0.93;;;;;;;12.45;27.17;99313.41;4470284;32;33068;-83
2023/04/05 14:26:34;;;;;;;0.60;0.60;;;;;;;11.80;26.95;99314.50;4470224;32;33656;-83
2023/04/05 14:29:02;;;;;;;1.35;1.25;;;;;;;11.95;26.49;99314.28;4468939;32;34907;-85
2023/04/05 14:31:30;;;;;;;0.60;0.60;;;;;;;11.75;28.53;99306.75;4469016;32;34413;-85
2023/04/05 14:34:00;;;;;;;0.75;0.73;;;;;;;12.25;29.62;99317.25;4469153;32;33434;-84
2023/04/05 14:36:28;;;;;;;1.20;0.77;;;;;;;12.13;27.97;99317.47;4468929;32;32618;-84
2023/04/05 14:38:58;;;;;;;0.60;0.60;;;;;;;12.55;26.26;99314.06;4468985;32;34904;-86
2023/04/05 14:41:26;;;;;;;0.40;0.40;;;;;;;12.33;26.45;99304.94;4468545;32;34348;-86
2023/04/05 14:43:54;;;;;;;1.87;0.82;;;;;;;11.57;25.74;99307.87;4468979;32;34211;-87
2023/04/05 14:46:22;;;;;;;1.02;1.02;;;;;;;12.31;26.23;99306.69;4456155;32;33819;-87
2023/04/05 14:48:51;;;;;;;0.37;0.37;;;;;;;11.68;27.54;99317.28;4456428;32;34636;-83
2023/04/05 14:51:20;;;;;;;0.50;0.50;;;;;;;10.96;29.05;99306.16;4469885;32;34966;-84
2023/04/05 14:53:48;;;;;;;0.60;0.60;;;;;;;11.53;27.47;99305.38;4470107;32;33098;-85
2023/04/05 14:56:16;;;;;;;0.70;0.70;;;;;;;10.79;27.00;99315.03;4468888;32;33770;-85
2023/04/05 14:58:44;;;;;;;0.50;0.50;;;;;;;10.70;28.08;99312.53;4469872;32;34960;-84
2023/04/05 15:01:12;;;;;;;0.50;0.50;;;;;;;11.34;27.12;99310.84;4469899;32;34314;-84
2023/04/05 15:03:41;;;;;;;1.98;1.48;;;;;;;11.26;27.08;99317.91;4469925;32;34039;-83
2023/04/05 15:06:09;;;;;;;2.05;1.95;;;;;;;11.13;27.10;99311.12;4469834;32;33881;-84
2023/04/05 15:08:39;;;;;;;0.40;0.40;;;;;;;10.24;28.43;99318.22;4469686;32;34589;-84
2023/04/05 15:11:07;;;;;;;0.88;0.88;;;;;;;10.36;27.52;99309.44;4469723;32;34589;-84
2023/04/05 15:13:35;;;;;;;1.30;1.20;;;;;;;10.23;26.89;99314.72;4469669;32;33207;-84
2023/04/05 15:16:04;;;;;;;1.15;1.12;;;;;;;10.52;27.09;99316.22;4469970;32;33841;-83
2023/04/05 15:18:32;;;;;;;0.52;0.52;;;;;;;10.25;26.78;99317.31;4480014;32;35570;-84
2023/04/05 15:21:00;;;;;;;0.68;0.68;;;;;;;10.70;26.51;99324.72;4458122;32;33420;-84
2023/04/05 15:23:30;;;;;;;0.50;0.50;;;;;;;9.99;28.34;99315.84;4485383;32;33755;-85
2023/04/05 15:25:58;;;;;;;0.77;0.77;;;;;;;10.57;26.45;99314.44;4485228;32;33952;-84
2023/04/05 15:28:30;;;;;;;0.50;0.50;;;;;;;10.38;27.84;99316.38;4471598;32;34991;-85
2023/04/05 15:30:58;;;;;;;0.60;0.60;;;;;;;10.63;25.23;99316.97;4471081;32;34384;-85
2023/04/05 15:33:26;;;;;;;0.73;0.73;;;;;;;10.91;25.84;99321.84;4485003;32;34094;-87
2023/04/05 15:35:55;;;;;;;5.10;2.55;;;;;;;10.14;26.89;99313.97;4485163;32;34637;-82
2023/04/05 15:38:23;;;;;;;0.70;0.70;;;;;;;9.41;27.54;99316.28;4470978;32;34992;-84
2023/04/05 15:40:51;;;;;;;0.65;0.65;;;;;;;9.92;28.36;99323.69;4470965;32;34461;-88
2023/04/05 15:43:19;;;;;;;2.70;1.85;;;;;;;10.03;26.98;99319.28;4484893;32;33455;-83
2023/04/05 15:45:48;;;;;;;0.40;0.40;;;;;;;9.66;27.92;99329.97;4484962;32;34562;-84
2023/04/05 15:48:17;;;;;;;1.65;0.77;;;;;;;10.05;26.82;99322.72;4484823;32;34664;-84
2023/04/05 15:50:45;;;;;;;0.40;0.40;;;;;;;9.64;27.65;99322.19;4470430;32;34050;-84
2023/04/05 15:53:14;;;;;;;0.55;0.55;;;;;;;9.34;26.99;99319.81;4484812;32;33408;-84
2023/04/05 15:55:42;;;;;;;0.50;0.50;;;;;;;9.09;27.66;99325.13;4486946;32;34713;-84
2023/04/05 15:58:10;;;;;;;0.55;0.52;;;;;;;9.18;27.03;99319.88;4486985;32;35820;-83
2023/04/05 16:00:40;;;;;;;0.82;0.82;;;;;;;9.05;28.04;99326.00;4472784;32;34370;-84
2023/04/05 16:03:08;;;;;;;2.28;1.08;;;;;;;8.79;29.08;99329.59;4473069;32;33130;-84
2023/04/05 16:05:36;;;;;;;1.55;1.50;;;;;;;9.23;28.10;99323.31;4486996;32;33846;-84
2023/04/05 16:08:05;;;;;;;0.50;0.50;;;;;;;9.16;29.08;99329.44;4486878;32;34840;-84
2023/04/05 16:10:33;;;;;;;0.68;0.62;;;;;;;9.15;27.72;99329.44;4486883;32;34401;-84
2023/04/05 16:13:02;;;;;;;0.70;0.70;;;;;;;8.96;27.98;99326.06;4486890;32;34113;-84
2023/04/05 16:15:31;;;;;;;0.60;0.60;;;;;;;9.45;26.61;99333.59;4487185;32;34615;-84
2023/04/05 16:17:59;;;;;;;0.82;0.82;;;;;;;8.99;29.06;99336.44;4472800;32;35017;-84
2023/04/05 16:20:27;;;;;;;2.22;2.05;;;;;;;8.64;29.28;99338.28;4486946;32;34405;-84
2023/04/05 16:22:57;;;;;;;0.60;0.60;;;;;;;8.67;29.20;99337.41;4472881;32;32969;-84
2023/04/05 16:25:25;;;;;;;0.62;0.62;;;;;;;8.40;30.30;99344.38;4472831;32;33878;-87
2023/04/05 16:27:53;;;;;;;0.70;0.70;;;;;;;8.34;31.13;99342.62;4472434;32;34324;-84
2023/04/05 16:30:21;;;;;;;0.40;0.40;;;;;;;8.09;31.46;99339.22;4486643;32;35225;-84
2023/04/05 16:32:50;;;;;;;0.98;0.98;;;;;;;8.22;31.61;99336.59;4472829;32;33028;-84
2023/04/05 16:35:19;;;;;;;0.65;0.65;;;;;;;8.00;31.74;99338.37;4472692;32;34724;-85
2023/04/05 16:37:47;;;;;;;0.82;0.82;;;;;;;8.10;31.75;99334.88;4472522;32;33792;-87
2023/04/05 16:40:17;;;;;;;0.68;0.68;;;;;;;8.50;30.64;99337.44;4472656;32;34394;-87
2023/04/05 16:42:46;;;;;;;0.50;0.50;;;;;;;8.50;29.96;99330.53;4473061;32;34187;-87
2023/04/05 16:45:14;;;;;;;0.50;0.50;;;;;;;7.89;31.26;99339.22;4486969;31;34253;-84
2023/04/05 16:47:42;;;;;;;0.50;0.50;;;;;;;7.62;32.40;99334.88;4472710;32;35026;-84
2023/04/05 16:50:10;;;;;;;0.73;0.73;;;;;;;7.82;31.23;99336.63;4472226;32;33355;-84
2023/04/05 16:52:38;;;;;;;0.40;0.40;;;;;;;7.68;32.15;99334.91;4472571;32;33446;-84
2023/04/05 16:55:09;;;;;;;0.40;0.40;;;;;;;7.81;32.20;99334.91;4486611;31;33996;-84
2023/04/05 16:57:37;;;;;;;0.77;0.77;;;;;;;7.58;32.64;99327.97;4472223;32;33548;-88
2023/04/05 17:00:05;;;;;;;1.48;1.35;;;;;;;7.34;32.78;99327.09;4486611;32;34372;-85
2023/04/05 17:02:33;;;;;;;0.57;0.57;;;;;;;6.96;34.05;99333.00;4472494;32;33785;-86